sensor_id;sensor_type;location;lat;lon;timestamp;noise_LAeq;noise_LA_min;noise_LA_max;noise_LA01;noise_LA95
47923;Laerm;33688;44.354;9.228;2023-12-14T04:40:53;36.40;35.31;39.38;;
47923;Laerm;33688;44.354;9.228;2023-12-14T04:43:20;36.61;35.52;39.61;;
47923;Laerm;33688;44.354;9.228;2023-12-14T04:45:45;36.66;35.56;39.96;;
47923;Laerm;33688;44.354;9.228;2023-12-14T04:48:12;36.65;35.54;39.71;;
47923;Laerm;33688;44.354;9.228;2023-12-14T04:50:38;36.70;35.47;40.18;;
47923;Laerm;33688;44.354;9.228;2023-12-14T04:53:03;36.65;35.48;39.80;;
47923;Laerm;33688;44.354;9.228;2023-12-14T04:55:30;36.62;35.46;39.94;;
47923;Laerm;33688;44.354;9.228;2023-12-14T04:57:56;36.63;35.56;39.75;;
47923;Laerm;33688;44.354;9.228;2023-12-14T05:00:22;36.72;35.50;45.36;;
47923;Laerm;33688;44.354;9.228;2023-12-14T05:02:50;36.70;35.39;45.33;;
47923;Laerm;33688;44.354;9.228;2023-12-14T05:05:16;36.70;35.60;46.66;;
47923;Laerm;33688;44.354;9.228;2023-12-14T05:07:42;36.96;35.54;50.18;;
47923;Laerm;33688;44.354;9.228;2023-12-14T05:10:07;36.72;35.46;40.49;;
47923;Laerm;33688;44.354;9.228;2023-12-14T05:12:35;36.94;35.56;45.70;;
47923;Laerm;33688;44.354;9.228;2023-12-14T05:15:03;36.61;35.48;39.94;;
47923;Laerm;33688;44.354;9.228;2023-12-14T05:17:29;36.82;35.25;52.16;;
47923;Laerm;33688;44.354;9.228;2023-12-14T05:19:54;36.53;35.51;39.93;;
47923;Laerm;33688;44.354;9.228;2023-12-14T05:22:21;36.26;35.13;39.93;;
47923;Laerm;33688;44.354;9.228;2023-12-14T05:24:48;36.75;34.94;46.17;;
47923;Laerm;33688;44.354;9.228;2023-12-14T05:27:15;36.26;35.12;39.81;;
47923;Laerm;33688;44.354;9.228;2023-12-14T05:29:41;36.26;34.93;40.01;;
47923;Laerm;33688;44.354;9.228;2023-12-14T05:32:07;36.29;35.13;39.84;;
47923;Laerm;33688;44.354;9.228;2023-12-14T05:34:34;36.28;35.23;41.56;;
47923;Laerm;33688;44.354;9.228;2023-12-14T05:36:59;36.33;35.06;39.93;;
47923;Laerm;33688;44.354;9.228;2023-12-14T05:39:25;36.45;35.21;40.87;;
47923;Laerm;33688;44.354;9.228;2023-12-14T05:41:51;36.28;35.08;39.69;;
47923;Laerm;33688;44.354;9.228;2023-12-14T05:44:17;36.30;35.13;40.15;;
47923;Laerm;33688;44.354;9.228;2023-12-14T05:46:43;36.29;35.01;40.11;;
47923;Laerm;33688;44.354;9.228;2023-12-14T05:49:10;36.58;35.28;40.29;;
47923;Laerm;33688;44.354;9.228;2023-12-14T05:51:36;36.32;34.89;39.96;;
47923;Laerm;33688;44.354;9.228;2023-12-14T05:54:03;36.29;35.07;39.83;;
47923;Laerm;33688;44.354;9.228;2023-12-14T05:56:29;36.30;35.11;39.71;;
47923;Laerm;33688;44.354;9.228;2023-12-14T05:58:55;36.31;35.05;40.01;;
47923;Laerm;33688;44.354;9.228;2023-12-14T06:01:22;36.36;35.11;39.75;;
47923;Laerm;33688;44.354;9.228;2023-12-14T06:03:48;36.31;34.85;40.02;;
47923;Laerm;33688;44.354;9.228;2023-12-14T06:06:14;36.37;35.20;39.83;;
47923;Laerm;33688;44.354;9.228;2023-12-14T06:08:40;36.32;35.08;40.25;;
47923;Laerm;33688;44.354;9.228;2023-12-14T06:11:07;36.36;35.11;39.71;;
47923;Laerm;33688;44.354;9.228;2023-12-14T06:13:33;36.35;35.11;40.28;;
47923;Laerm;33688;44.354;9.228;2023-12-14T06:15:59;36.37;35.15;40.36;;
47923;Laerm;33688;44.354;9.228;2023-12-14T06:18:25;36.36;35.04;39.74;;
47923;Laerm;33688;44.354;9.228;2023-12-14T06:20:51;36.35;35.01;39.87;;
47923;Laerm;33688;44.354;9.228;2023-12-14T06:23:18;36.30;35.08;40.04;;
47923;Laerm;33688;44.354;9.228;2023-12-14T06:25:45;36.59;35.08;45.24;;
47923;Laerm;33688;44.354;9.228;2023-12-14T06:28:11;36.35;35.06;40.73;;
47923;Laerm;33688;44.354;9.228;2023-12-14T06:30:37;36.41;35.19;49.15;;
47923;Laerm;33688;44.354;9.228;2023-12-14T06:33:03;36.31;34.96;39.73;;
47923;Laerm;33688;44.354;9.228;2023-12-14T06:35:29;36.34;35.09;40.12;;
47923;Laerm;33688;44.354;9.228;2023-12-14T06:37:54;36.44;35.16;40.12;;
47923;Laerm;33688;44.354;9.228;2023-12-14T06:40:20;36.35;35.17;39.70;;
47923;Laerm;33688;44.354;9.228;2023-12-14T06:42:46;36.42;35.07;44.50;;
47923;Laerm;33688;44.354;9.228;2023-12-14T06:45:12;36.38;35.02;43.49;;
47923;Laerm;33688;44.354;9.228;2023-12-14T06:47:38;36.41;35.19;43.64;;
47923;Laerm;33688;44.354;9.228;2023-12-14T06:50:04;36.34;35.16;39.81;;
47923;Laerm;33688;44.354;9.228;2023-12-14T06:52:30;36.34;34.98;41.67;;
47923;Laerm;33688;44.354;9.228;2023-12-14T06:54:56;36.40;35.24;39.97;;
47923;Laerm;33688;44.354;9.228;2023-12-14T06:57:22;36.48;34.97;40.83;;
47923;Laerm;33688;44.354;9.228;2023-12-14T06:59:48;37.11;35.13;43.11;;
47923;Laerm;33688;44.354;9.228;2023-12-14T07:02:14;36.77;35.12;44.48;;
47923;Laerm;33688;44.354;9.228;2023-12-14T07:04:40;36.45;35.13;39.73;;
47923;Laerm;33688;44.354;9.228;2023-12-14T07:07:07;36.56;35.15;52.61;;
47923;Laerm;33688;44.354;9.228;2023-12-14T07:09:35;36.43;35.09;39.94;;
47923;Laerm;33688;44.354;9.228;2023-12-14T07:12:01;39.46;35.17;49.63;;
47923;Laerm;33688;44.354;9.228;2023-12-14T07:14:30;36.42;35.17;40.51;;
47923;Laerm;33688;44.354;9.228;2023-12-14T07:16:56;36.63;35.29;47.47;;
47923;Laerm;33688;44.354;9.228;2023-12-14T07:19:22;36.54;35.20;46.12;;
47923;Laerm;33688;44.354;9.228;2023-12-14T07:21:47;36.44;35.16;40.45;;
47923;Laerm;33688;44.354;9.228;2023-12-14T07:24:14;36.40;35.16;39.73;;
47923;Laerm;33688;44.354;9.228;2023-12-14T07:26:40;41.75;35.23;61.77;;
47923;Laerm;33688;44.354;9.228;2023-12-14T07:29:06;40.54;35.21;57.67;;
47923;Laerm;33688;44.354;9.228;2023-12-14T07:31:31;38.19;35.20;59.45;;
47923;Laerm;33688;44.354;9.228;2023-12-14T07:33:59;36.69;35.26;43.66;;
47923;Laerm;33688;44.354;9.228;2023-12-14T07:36:25;48.88;35.23;65.14;;
47923;Laerm;33688;44.354;9.228;2023-12-14T07:38:50;53.20;35.48;68.18;;
47923;Laerm;33688;44.354;9.228;2023-12-14T07:41:16;59.33;35.71;75.56;;
47923;Laerm;33688;44.354;9.228;2023-12-14T07:43:42;55.36;35.69;69.63;;
47923;Laerm;33688;44.354;9.228;2023-12-14T07:46:08;54.24;35.27;71.01;;
47923;Laerm;33688;44.354;9.228;2023-12-14T07:48:35;52.24;35.35;69.57;;
47923;Laerm;33688;44.354;9.228;2023-12-14T07:51:03;45.90;35.23;63.56;;
47923;Laerm;33688;44.354;9.228;2023-12-14T07:53:31;52.64;35.16;68.82;;
47923;Laerm;33688;44.354;9.228;2023-12-14T07:55:57;52.55;35.39;69.22;;
47923;Laerm;33688;44.354;9.228;2023-12-14T07:58:23;42.88;35.34;59.64;;
47923;Laerm;33688;44.354;9.228;2023-12-14T08:00:51;57.38;35.47;71.67;;
47923;Laerm;33688;44.354;9.228;2023-12-14T08:03:18;60.44;35.74;75.97;;
47923;Laerm;33688;44.354;9.228;2023-12-14T08:05:44;54.27;35.33;70.63;;
47923;Laerm;33688;44.354;9.228;2023-12-14T08:08:09;47.51;35.30;65.38;;
47923;Laerm;33688;44.354;9.228;2023-12-14T08:10:35;52.64;35.40;69.23;;
47923;Laerm;33688;44.354;9.228;2023-12-14T08:13:01;53.22;35.56;68.39;;
47923;Laerm;33688;44.354;9.228;2023-12-14T08:15:27;50.95;35.32;66.21;;
47923;Laerm;33688;44.354;9.228;2023-12-14T08:17:53;51.32;35.04;67.29;;
47923;Laerm;33688;44.354;9.228;2023-12-14T08:20:20;48.15;35.22;65.90;;
47923;Laerm;33688;44.354;9.228;2023-12-14T08:22:46;46.96;35.17;64.60;;
47923;Laerm;33688;44.354;9.228;2023-12-14T08:25:15;50.00;35.29;66.48;;
47923;Laerm;33688;44.354;9.228;2023-12-14T08:27:42;48.85;35.14;63.15;;
47923;Laerm;33688;44.354;9.228;2023-12-14T08:30:11;52.30;35.49;65.60;;
47923;Laerm;33688;44.354;9.228;2023-12-14T08:32:37;50.05;35.23;65.69;;
47923;Laerm;33688;44.354;9.228;2023-12-14T08:35:03;49.18;35.18;66.26;;
47923;Laerm;33688;44.354;9.228;2023-12-14T08:37:29;49.77;35.29;66.67;;
47923;Laerm;33688;44.354;9.228;2023-12-14T08:39:55;53.18;35.34;68.04;;
47923;Laerm;33688;44.354;9.228;2023-12-14T08:42:22;49.92;35.35;65.42;;
47923;Laerm;33688;44.354;9.228;2023-12-14T08:44:48;52.49;35.20;69.04;;
47923;Laerm;33688;44.354;9.228;2023-12-14T08:47:14;42.22;35.17;58.36;;
47923;Laerm;33688;44.354;9.228;2023-12-14T08:49:40;50.54;35.39;67.41;;
47923;Laerm;33688;44.354;9.228;2023-12-14T08:52:06;52.00;35.53;66.55;;
47923;Laerm;33688;44.354;9.228;2023-12-14T08:54:32;52.63;35.42;66.29;;
47923;Laerm;33688;44.354;9.228;2023-12-14T08:56:58;51.23;35.43;67.39;;
47923;Laerm;33688;44.354;9.228;2023-12-14T08:59:24;52.93;35.44;65.14;;
47923;Laerm;33688;44.354;9.228;2023-12-14T09:01:49;51.73;35.22;66.10;;
47923;Laerm;33688;44.354;9.228;2023-12-14T09:04:15;52.34;35.27;65.24;;
47923;Laerm;33688;44.354;9.228;2023-12-14T09:06:41;52.14;35.25;66.00;;
47923;Laerm;33688;44.354;9.228;2023-12-14T09:09:10;49.70;35.30;63.79;;
47923;Laerm;33688;44.354;9.228;2023-12-14T09:11:37;51.83;35.21;66.56;;
47923;Laerm;33688;44.354;9.228;2023-12-14T09:14:03;52.04;35.32;69.19;;
47923;Laerm;33688;44.354;9.228;2023-12-14T09:16:29;46.50;35.30;65.82;;
47923;Laerm;33688;44.354;9.228;2023-12-14T09:18:55;50.13;35.20;62.90;;
47923;Laerm;33688;44.354;9.228;2023-12-14T09:21:20;52.67;35.27;67.54;;
47923;Laerm;33688;44.354;9.228;2023-12-14T09:23:47;54.01;35.37;69.37;;
47923;Laerm;33688;44.354;9.228;2023-12-14T09:26:14;52.92;35.20;66.36;;
47923;Laerm;33688;44.354;9.228;2023-12-14T09:28:40;51.30;35.33;68.59;;
47923;Laerm;33688;44.354;9.228;2023-12-14T09:31:06;52.55;35.28;67.50;;
47923;Laerm;33688;44.354;9.228;2023-12-14T09:33:32;52.01;35.00;68.42;;
47923;Laerm;33688;44.354;9.228;2023-12-14T09:35:58;51.74;35.31;67.34;;
47923;Laerm;33688;44.354;9.228;2023-12-14T09:38:25;52.48;35.24;66.24;;
47923;Laerm;33688;44.354;9.228;2023-12-14T09:40:51;51.99;35.80;65.88;;
47923;Laerm;33688;44.354;9.228;2023-12-14T09:43:17;53.51;35.45;65.86;;
47923;Laerm;33688;44.354;9.228;2023-12-14T09:45:43;52.83;35.23;67.03;;
47923;Laerm;33688;44.354;9.228;2023-12-14T09:48:11;53.73;35.11;71.29;;
47923;Laerm;33688;44.354;9.228;2023-12-14T09:50:39;53.00;35.36;68.12;;
47923;Laerm;33688;44.354;9.228;2023-12-14T09:53:06;51.49;35.41;64.27;;
47923;Laerm;33688;44.354;9.228;2023-12-14T09:55:33;47.44;35.20;67.72;;
47923;Laerm;33688;44.354;9.228;2023-12-14T09:57:59;46.99;35.31;65.29;;
47923;Laerm;33688;44.354;9.228;2023-12-14T10:00:37;52.42;35.31;67.25;;
47923;Laerm;33688;44.354;9.228;2023-12-14T10:03:27;51.06;35.59;70.95;;
47923;Laerm;33688;44.354;9.228;2023-12-14T10:05:55;49.21;36.98;64.17;;
47923;Laerm;33688;44.354;9.228;2023-12-14T10:08:21;54.01;35.48;71.47;;
47923;Laerm;33688;44.354;9.228;2023-12-14T10:10:50;53.93;35.19;67.00;;
47923;Laerm;33688;44.354;9.228;2023-12-14T10:13:21;53.08;35.29;68.84;;
47923;Laerm;33688;44.354;9.228;2023-12-14T10:15:48;52.54;35.28;69.60;;
47923;Laerm;33688;44.354;9.228;2023-12-14T10:18:24;51.69;35.34;66.30;;
47923;Laerm;33688;44.354;9.228;2023-12-14T10:20:51;51.52;35.28;66.37;;
47923;Laerm;33688;44.354;9.228;2023-12-14T10:23:17;50.95;35.47;69.79;;
47923;Laerm;33688;44.354;9.228;2023-12-14T10:25:44;50.43;35.32;62.75;;
47923;Laerm;33688;44.354;9.228;2023-12-14T10:28:14;50.52;35.37;65.94;;
47923;Laerm;33688;44.354;9.228;2023-12-14T10:30:41;43.30;35.28;60.02;;
47923;Laerm;33688;44.354;9.228;2023-12-14T10:33:06;52.80;35.77;65.38;;
47923;Laerm;33688;44.354;9.228;2023-12-14T10:35:32;55.49;35.84;72.36;;
47923;Laerm;33688;44.354;9.228;2023-12-14T10:38:03;56.79;37.04;69.58;;
47923;Laerm;33688;44.354;9.228;2023-12-14T10:40:33;55.70;35.90;69.73;;
47923;Laerm;33688;44.354;9.228;2023-12-14T10:43:00;52.48;35.78;70.43;;
47923;Laerm;33688;44.354;9.228;2023-12-14T10:45:33;54.78;35.60;68.92;;
47923;Laerm;33688;44.354;9.228;2023-12-14T10:48:00;53.64;36.02;71.73;;
47923;Laerm;33688;44.354;9.228;2023-12-14T10:50:29;51.45;36.40;67.70;;
47923;Laerm;33688;44.354;9.228;2023-12-14T10:52:57;52.67;36.49;69.04;;
47923;Laerm;33688;44.354;9.228;2023-12-14T10:55:44;51.75;35.72;65.78;;
47923;Laerm;33688;44.354;9.228;2023-12-14T10:58:11;52.53;35.84;65.61;;
47923;Laerm;33688;44.354;9.228;2023-12-14T11:00:38;54.29;35.85;70.18;;
47923;Laerm;33688;44.354;9.228;2023-12-14T11:03:05;52.36;35.78;66.06;;
47923;Laerm;33688;44.354;9.228;2023-12-14T11:05:35;52.60;35.78;69.28;;
47923;Laerm;33688;44.354;9.228;2023-12-14T11:08:05;52.66;35.82;66.93;;
47923;Laerm;33688;44.354;9.228;2023-12-14T11:10:53;51.64;35.73;68.33;;
47923;Laerm;33688;44.354;9.228;2023-12-14T11:13:23;45.45;35.34;62.68;;
47923;Laerm;33688;44.354;9.228;2023-12-14T11:15:51;52.67;35.81;66.21;;
47923;Laerm;33688;44.354;9.228;2023-12-14T11:20:56;51.00;35.71;65.95;;
47923;Laerm;33688;44.354;9.228;2023-12-14T11:26:05;53.63;35.49;66.92;;
47923;Laerm;33688;44.354;9.228;2023-12-14T11:28:39;53.97;35.51;71.10;;
47923;Laerm;33688;44.354;9.228;2023-12-14T11:31:10;54.35;35.31;67.78;;
47923;Laerm;33688;44.354;9.228;2023-12-14T11:33:36;53.56;35.44;68.94;;
47923;Laerm;33688;44.354;9.228;2023-12-14T11:36:03;54.13;36.98;68.33;;
47923;Laerm;33688;44.354;9.228;2023-12-14T11:38:30;53.23;35.46;69.46;;
47923;Laerm;33688;44.354;9.228;2023-12-14T11:40:56;52.59;35.45;66.28;;
47923;Laerm;33688;44.354;9.228;2023-12-14T11:43:21;53.60;35.26;66.65;;
47923;Laerm;33688;44.354;9.228;2023-12-14T11:45:49;52.08;35.19;65.49;;
47923;Laerm;33688;44.354;9.228;2023-12-14T11:48:15;51.60;35.23;65.46;;
47923;Laerm;33688;44.354;9.228;2023-12-14T11:50:42;52.54;35.35;68.79;;
47923;Laerm;33688;44.354;9.228;2023-12-14T11:53:09;54.99;35.37;70.29;;
47923;Laerm;33688;44.354;9.228;2023-12-14T11:55:38;57.90;35.39;69.36;;
47923;Laerm;33688;44.354;9.228;2023-12-14T11:58:04;58.78;35.56;72.53;;
47923;Laerm;33688;44.354;9.228;2023-12-14T12:00:31;54.30;35.53;70.97;;
47923;Laerm;33688;44.354;9.228;2023-12-14T12:03:14;40.86;35.40;64.02;;
47923;Laerm;33688;44.354;9.228;2023-12-14T12:05:49;36.71;35.35;47.93;;
47923;Laerm;33688;44.354;9.228;2023-12-14T12:08:18;37.44;35.34;58.22;;
47923;Laerm;33688;44.354;9.228;2023-12-14T12:10:45;36.94;35.18;46.90;;
47923;Laerm;33688;44.354;9.228;2023-12-14T12:13:18;37.41;35.16;54.10;;
47923;Laerm;33688;44.354;9.228;2023-12-14T12:15:44;36.78;35.29;43.60;;
47923;Laerm;33688;44.354;9.228;2023-12-14T12:18:15;36.55;35.16;40.35;;
47923;Laerm;33688;44.354;9.228;2023-12-14T12:20:42;36.59;35.28;44.49;;
47923;Laerm;33688;44.354;9.228;2023-12-14T12:23:09;38.78;35.62;60.60;;
47923;Laerm;33688;44.354;9.228;2023-12-14T12:25:35;38.10;35.39;53.24;;
47923;Laerm;33688;44.354;9.228;2023-12-14T12:28:03;43.58;35.42;66.42;;
47923;Laerm;33688;44.354;9.228;2023-12-14T12:30:32;37.82;35.39;54.70;;
47923;Laerm;33688;44.354;9.228;2023-12-14T12:32:58;36.63;35.26;47.23;;
47923;Laerm;33688;44.354;9.228;2023-12-14T12:35:24;36.80;35.32;53.26;;
47923;Laerm;33688;44.354;9.228;2023-12-14T12:37:51;38.53;35.60;54.86;;
47923;Laerm;33688;44.354;9.228;2023-12-14T12:40:25;38.92;37.22;53.40;;
47923;Laerm;33688;44.354;9.228;2023-12-14T12:42:56;39.05;37.94;46.51;;
47923;Laerm;33688;44.354;9.228;2023-12-14T12:45:22;38.39;35.39;49.00;;
47923;Laerm;33688;44.354;9.228;2023-12-14T12:47:51;37.59;35.21;50.95;;
47923;Laerm;33688;44.354;9.228;2023-12-14T12:50:17;37.81;35.35;55.90;;
47923;Laerm;33688;44.354;9.228;2023-12-14T12:52:43;36.51;35.27;41.26;;
47923;Laerm;33688;44.354;9.228;2023-12-14T12:55:11;42.87;35.20;67.39;;
47923;Laerm;33688;44.354;9.228;2023-12-14T12:57:37;51.83;35.15;78.87;;
47923;Laerm;33688;44.354;9.228;2023-12-14T13:00:04;36.98;35.39;44.38;;
47923;Laerm;33688;44.354;9.228;2023-12-14T13:02:33;36.85;35.44;41.33;;
47923;Laerm;33688;44.354;9.228;2023-12-14T13:04:59;36.85;35.41;40.30;;
47923;Laerm;33688;44.354;9.228;2023-12-14T13:07:25;36.81;35.28;40.85;;
47923;Laerm;33688;44.354;9.228;2023-12-14T13:09:51;36.70;35.32;40.57;;
47923;Laerm;33688;44.354;9.228;2023-12-14T13:12:17;38.84;35.49;63.60;;
47923;Laerm;33688;44.354;9.228;2023-12-14T13:14:42;37.20;35.25;45.02;;
47923;Laerm;33688;44.354;9.228;2023-12-14T13:17:08;36.96;35.51;41.00;;
47923;Laerm;33688;44.354;9.228;2023-12-14T13:19:35;37.02;35.37;42.67;;
47923;Laerm;33688;44.354;9.228;2023-12-14T13:22:01;37.68;35.43;54.19;;
47923;Laerm;33688;44.354;9.228;2023-12-14T13:24:27;37.69;35.18;52.65;;
47923;Laerm;33688;44.354;9.228;2023-12-14T13:26:53;38.29;35.36;54.01;;
47923;Laerm;33688;44.354;9.228;2023-12-14T13:29:20;51.79;35.46;75.66;;
47923;Laerm;33688;44.354;9.228;2023-12-14T13:31:47;48.27;35.29;71.34;;
47923;Laerm;33688;44.354;9.228;2023-12-14T13:34:13;57.11;35.54;77.23;;
47923;Laerm;33688;44.354;9.228;2023-12-14T13:36:39;49.27;35.33;69.54;;
47923;Laerm;33688;44.354;9.228;2023-12-14T13:39:04;41.03;35.36;58.78;;
47923;Laerm;33688;44.354;9.228;2023-12-14T13:41:32;45.57;35.19;71.52;;
47923;Laerm;33688;44.354;9.228;2023-12-14T13:44:00;42.44;35.28;62.38;;
47923;Laerm;33688;44.354;9.228;2023-12-14T13:46:26;41.26;35.22;62.27;;
47923;Laerm;33688;44.354;9.228;2023-12-14T13:48:52;46.48;35.22;66.27;;
47923;Laerm;33688;44.354;9.228;2023-12-14T13:51:18;53.04;35.32;68.90;;
47923;Laerm;33688;44.354;9.228;2023-12-14T13:53:45;51.35;35.20;70.45;;
47923;Laerm;33688;44.354;9.228;2023-12-14T13:56:11;41.30;35.23;66.04;;
47923;Laerm;33688;44.354;9.228;2023-12-14T13:58:38;39.41;36.43;56.29;;
47923;Laerm;33688;44.354;9.228;2023-12-14T14:01:05;44.40;35.16;67.01;;
47923;Laerm;33688;44.354;9.228;2023-12-14T14:03:35;49.53;35.29;66.88;;
47923;Laerm;33688;44.354;9.228;2023-12-14T14:06:02;52.77;35.25;66.98;;
47923;Laerm;33688;44.354;9.228;2023-12-14T14:08:28;52.75;35.33;66.67;;
47923;Laerm;33688;44.354;9.228;2023-12-14T14:10:55;40.93;35.23;57.45;;
47923;Laerm;33688;44.354;9.228;2023-12-14T14:13:21;45.60;35.17;61.30;;
47923;Laerm;33688;44.354;9.228;2023-12-14T14:15:48;40.18;35.19;58.68;;
47923;Laerm;33688;44.354;9.228;2023-12-14T14:18:14;51.89;35.11;67.21;;
47923;Laerm;33688;44.354;9.228;2023-12-14T14:20:39;51.99;35.18;66.49;;
47923;Laerm;33688;44.354;9.228;2023-12-14T14:23:06;51.91;35.17;71.23;;
47923;Laerm;33688;44.354;9.228;2023-12-14T14:25:32;49.36;35.12;68.33;;
47923;Laerm;33688;44.354;9.228;2023-12-14T14:27:59;45.31;35.22;61.05;;
47923;Laerm;33688;44.354;9.228;2023-12-14T14:30:26;43.83;35.05;63.92;;
47923;Laerm;33688;44.354;9.228;2023-12-14T14:32:52;53.24;35.29;70.12;;
47923;Laerm;33688;44.354;9.228;2023-12-14T14:35:19;52.94;35.18;66.83;;
47923;Laerm;33688;44.354;9.228;2023-12-14T14:37:45;46.63;35.28;66.50;;
47923;Laerm;33688;44.354;9.228;2023-12-14T14:40:13;47.66;35.08;66.79;;
47923;Laerm;33688;44.354;9.228;2023-12-14T14:42:44;48.03;35.28;76.48;;
47923;Laerm;33688;44.354;9.228;2023-12-14T14:45:12;45.45;35.13;63.83;;
47923;Laerm;33688;44.354;9.228;2023-12-14T14:47:40;44.74;35.30;60.42;;
47923;Laerm;33688;44.354;9.228;2023-12-14T14:50:07;44.78;35.54;61.90;;
47923;Laerm;33688;44.354;9.228;2023-12-14T14:52:34;41.84;35.34;58.75;;
47923;Laerm;33688;44.354;9.228;2023-12-14T14:55:01;42.87;35.10;62.34;;
47923;Laerm;33688;44.354;9.228;2023-12-14T14:57:27;45.98;35.28;64.99;;
47923;Laerm;33688;44.354;9.228;2023-12-14T14:59:53;44.57;35.20;65.60;;
47923;Laerm;33688;44.354;9.228;2023-12-14T15:02:20;47.77;35.31;69.21;;
47923;Laerm;33688;44.354;9.228;2023-12-14T15:04:46;45.25;35.23;63.35;;
47923;Laerm;33688;44.354;9.228;2023-12-14T15:07:14;42.55;35.31;63.39;;
47923;Laerm;33688;44.354;9.228;2023-12-14T15:09:40;49.48;35.53;68.08;;
47923;Laerm;33688;44.354;9.228;2023-12-14T15:12:06;52.42;36.78;66.36;;
47923;Laerm;33688;44.354;9.228;2023-12-14T15:14:32;40.91;35.50;55.75;;
47923;Laerm;33688;44.354;9.228;2023-12-14T15:16:57;42.68;35.54;59.86;;
47923;Laerm;33688;44.354;9.228;2023-12-14T15:19:26;49.42;35.39;68.20;;
47923;Laerm;33688;44.354;9.228;2023-12-14T15:21:52;52.96;35.75;73.98;;
47923;Laerm;33688;44.354;9.228;2023-12-14T15:24:18;49.35;35.40;67.73;;
47923;Laerm;33688;44.354;9.228;2023-12-14T15:26:45;54.90;35.38;74.47;;
47923;Laerm;33688;44.354;9.228;2023-12-14T15:29:12;66.33;43.03;82.19;;
47923;Laerm;33688;44.354;9.228;2023-12-14T15:31:37;55.50;41.65;75.78;;
47923;Laerm;33688;44.354;9.228;2023-12-14T15:34:03;49.65;42.69;64.01;;
47923;Laerm;33688;44.354;9.228;2023-12-14T15:36:32;47.32;42.94;62.89;;
47923;Laerm;33688;44.354;9.228;2023-12-14T15:39:00;47.50;43.91;59.11;;
47923;Laerm;33688;44.354;9.228;2023-12-14T15:41:28;58.22;44.37;78.25;;
47923;Laerm;33688;44.354;9.228;2023-12-14T15:43:55;71.51;44.81;89.72;;
47923;Laerm;33688;44.354;9.228;2023-12-14T15:46:21;72.69;44.79;90.90;;
47923;Laerm;33688;44.354;9.228;2023-12-14T15:48:48;63.02;43.55;85.00;;
47923;Laerm;33688;44.354;9.228;2023-12-14T15:51:13;50.94;44.07;65.51;;
47923;Laerm;33688;44.354;9.228;2023-12-14T15:53:39;50.60;44.26;64.29;;
47923;Laerm;33688;44.354;9.228;2023-12-14T15:56:06;57.97;44.54;84.68;;
47923;Laerm;33688;44.354;9.228;2023-12-14T15:58:32;56.34;44.42;83.29;;
47923;Laerm;33688;44.354;9.228;2023-12-14T16:00:58;52.71;45.44;74.31;;
47923;Laerm;33688;44.354;9.228;2023-12-14T16:03:24;49.36;45.66;61.15;;
47923;Laerm;33688;44.354;9.228;2023-12-14T16:05:51;52.72;44.89;68.84;;
47923;Laerm;33688;44.354;9.228;2023-12-14T16:08:18;47.87;44.58;60.15;;
47923;Laerm;33688;44.354;9.228;2023-12-14T16:10:43;48.07;44.59;61.10;;
47923;Laerm;33688;44.354;9.228;2023-12-14T16:13:13;55.45;44.60;70.43;;
47923;Laerm;33688;44.354;9.228;2023-12-14T16:15:39;52.75;44.59;67.88;;
47923;Laerm;33688;44.354;9.228;2023-12-14T16:18:05;50.63;44.44;64.44;;
47923;Laerm;33688;44.354;9.228;2023-12-14T16:20:31;58.92;44.28;81.47;;
47923;Laerm;33688;44.354;9.228;2023-12-14T16:22:57;60.92;45.18;79.72;;
47923;Laerm;33688;44.354;9.228;2023-12-14T16:25:24;58.60;44.09;78.21;;
47923;Laerm;33688;44.354;9.228;2023-12-14T16:27:51;52.34;44.14;73.19;;
47923;Laerm;33688;44.354;9.228;2023-12-14T16:30:18;56.31;44.29;81.59;;
47923;Laerm;33688;44.354;9.228;2023-12-14T16:32:45;53.98;43.79;76.23;;
47923;Laerm;33688;44.354;9.228;2023-12-14T16:35:11;49.82;45.24;74.62;;
47923;Laerm;33688;44.354;9.228;2023-12-14T16:37:39;51.46;44.59;75.50;;
47923;Laerm;33688;44.354;9.228;2023-12-14T16:40:05;48.94;44.74;69.40;;
47923;Laerm;33688;44.354;9.228;2023-12-14T16:42:31;52.80;45.06;77.05;;
47923;Laerm;33688;44.354;9.228;2023-12-14T16:44:58;54.02;44.99;67.60;;
47923;Laerm;33688;44.354;9.228;2023-12-14T16:47:23;58.71;44.72;83.52;;
47923;Laerm;33688;44.354;9.228;2023-12-14T16:49:49;54.70;44.45;78.98;;
47923;Laerm;33688;44.354;9.228;2023-12-14T16:52:15;57.91;43.89;79.88;;
47923;Laerm;33688;44.354;9.228;2023-12-14T16:54:46;59.31;43.92;78.52;;
47923;Laerm;33688;44.354;9.228;2023-12-14T16:57:12;46.10;44.02;58.10;;
47923;Laerm;33688;44.354;9.228;2023-12-14T16:59:40;45.48;43.54;62.15;;
47923;Laerm;33688;44.354;9.228;2023-12-14T17:02:07;45.76;43.53;63.64;;
47923;Laerm;33688;44.354;9.228;2023-12-14T17:04:34;46.37;43.58;62.61;;
47923;Laerm;33688;44.354;9.228;2023-12-14T17:07:00;50.41;43.46;68.47;;
47923;Laerm;33688;44.354;9.228;2023-12-14T17:09:26;56.65;43.75;80.11;;
47923;Laerm;33688;44.354;9.228;2023-12-14T17:11:55;54.84;43.75;75.46;;
47923;Laerm;33688;44.354;9.228;2023-12-14T17:14:21;56.08;43.86;79.01;;
47923;Laerm;33688;44.354;9.228;2023-12-14T17:16:49;59.86;44.06;88.18;;
47923;Laerm;33688;44.354;9.228;2023-12-14T17:19:15;55.86;43.94;77.15;;
47923;Laerm;33688;44.354;9.228;2023-12-14T17:21:41;46.84;43.63;61.59;;
47923;Laerm;33688;44.354;9.228;2023-12-14T17:24:08;47.65;44.87;62.37;;
47923;Laerm;33688;44.354;9.228;2023-12-14T17:26:35;62.41;44.64;89.82;;
47923;Laerm;33688;44.354;9.228;2023-12-14T17:29:02;48.64;44.69;62.78;;
47923;Laerm;33688;44.354;9.228;2023-12-14T17:31:31;49.22;44.77;66.39;;
47923;Laerm;33688;44.354;9.228;2023-12-14T17:33:59;60.34;44.82;75.51;;
47923;Laerm;33688;44.354;9.228;2023-12-14T17:36:24;64.75;44.77;83.13;;
47923;Laerm;33688;44.354;9.228;2023-12-14T17:38:50;69.04;44.59;86.91;;
47923;Laerm;33688;44.354;9.228;2023-12-14T17:41:17;66.97;62.78;81.31;;
47923;Laerm;33688;44.354;9.228;2023-12-14T17:43:43;66.59;58.57;75.82;;
47923;Laerm;33688;44.354;9.228;2023-12-14T17:46:14;65.75;62.34;74.31;;
47923;Laerm;33688;44.354;9.228;2023-12-14T17:48:40;65.47;61.05;82.87;;
47923;Laerm;33688;44.354;9.228;2023-12-14T17:51:07;64.76;61.39;75.63;;
47923;Laerm;33688;44.354;9.228;2023-12-14T17:53:33;62.61;35.60;82.11;;
47923;Laerm;33688;44.354;9.228;2023-12-14T17:56:05;62.01;35.27;74.46;;
47923;Laerm;33688;44.354;9.228;2023-12-14T17:58:31;64.72;57.63;68.16;;
47923;Laerm;33688;44.354;9.228;2023-12-14T18:00:57;64.91;62.28;68.48;;
47923;Laerm;33688;44.354;9.228;2023-12-14T18:03:26;64.41;59.04;68.67;;
47923;Laerm;33688;44.354;9.228;2023-12-14T18:05:55;63.79;61.17;67.63;;
47923;Laerm;33688;44.354;9.228;2023-12-14T18:08:22;62.37;35.58;67.92;;
47923;Laerm;33688;44.354;9.228;2023-12-14T18:10:47;42.32;35.11;65.63;;
47923;Laerm;33688;44.354;9.228;2023-12-14T18:13:14;37.73;35.10;53.08;;
47923;Laerm;33688;44.354;9.228;2023-12-14T18:15:43;36.93;35.21;43.49;;
47923;Laerm;33688;44.354;9.228;2023-12-14T18:18:10;37.86;35.29;53.60;;
47923;Laerm;33688;44.354;9.228;2023-12-14T18:20:36;36.99;35.19;53.84;;
47923;Laerm;33688;44.354;9.228;2023-12-14T18:23:02;36.74;35.34;43.34;;
47923;Laerm;33688;44.354;9.228;2023-12-14T18:25:28;38.80;35.13;53.87;;
47923;Laerm;33688;44.354;9.228;2023-12-14T18:27:55;37.63;35.38;43.01;;